sensor_id;sensor_type;location;lat;lon;timestamp;pressure;altitude;pressure_sealevel;temperature
65316;BMP280;51920;53.952;10.292;2023-03-14T00:01:26;98280.16;;;10.67
65316;BMP280;51920;53.952;10.292;2023-03-14T00:03:52;98286.22;;;10.58
65316;BMP280;51920;53.952;10.292;2023-03-14T00:06:19;98284.84;;;10.53
65316;BMP280;51920;53.952;10.292;2023-03-14T00:08:47;98283.09;;;10.47
65316;BMP280;51920;53.952;10.292;2023-03-14T00:11:16;98269.69;;;10.43
65316;BMP280;51920;53.952;10.292;2023-03-14T00:13:49;98275.53;;;10.54
65316;BMP280;51920;53.952;10.292;2023-03-14T00:16:16;98261.69;;;10.40
65316;BMP280;51920;53.952;10.292;2023-03-14T00:18:43;98263.97;;;10.41
65316;BMP280;51920;53.952;10.292;2023-03-14T00:21:11;98266.25;;;10.30
65316;BMP280;51920;53.952;10.292;2023-03-14T00:23:39;98266.19;;;10.21
65316;BMP280;51920;53.952;10.292;2023-03-14T00:26:12;98247.38;;;10.17
65316;BMP280;51920;53.952;10.292;2023-03-14T00:28:40;98273.63;;;10.17
65316;BMP280;51920;53.952;10.292;2023-03-14T00:31:10;98259.25;;;10.20
65316;BMP280;51920;53.952;10.292;2023-03-14T00:33:39;98264.97;;;10.22
65316;BMP280;51920;53.952;10.292;2023-03-14T00:36:08;98274.91;;;10.38
65316;BMP280;51920;53.952;10.292;2023-03-14T00:38:37;98273.59;;;10.42
65316;BMP280;51920;53.952;10.292;2023-03-14T00:41:06;98270.03;;;10.32
65316;BMP280;51920;53.952;10.292;2023-03-14T00:43:33;98276.56;;;10.35
65316;BMP280;51920;53.952;10.292;2023-03-14T00:46:00;98270.50;;;10.31
65316;BMP280;51920;53.952;10.292;2023-03-14T00:48:27;98271.66;;;10.43
65316;BMP280;51920;53.952;10.292;2023-03-14T00:50:54;98277.00;;;10.55
65316;BMP280;51920;53.952;10.292;2023-03-14T00:53:21;98271.94;;;10.57
65316;BMP280;51920;53.952;10.292;2023-03-14T00:55:49;98262.69;;;10.46
65316;BMP280;51920;53.952;10.292;2023-03-14T00:58:17;98260.50;;;10.41
65316;BMP280;51920;53.952;10.292;2023-03-14T01:00:45;98251.56;;;10.31
65316;BMP280;51920;53.952;10.292;2023-03-14T01:03:13;98241.63;;;10.28
65316;BMP280;51920;53.952;10.292;2023-03-14T01:05:40;98222.06;;;10.11
65316;BMP280;51920;53.952;10.292;2023-03-14T01:08:07;98236.66;;;10.13
65316;BMP280;51920;53.952;10.292;2023-03-14T01:10:38;98238.81;;;10.19
65316;BMP280;51920;53.952;10.292;2023-03-14T01:13:05;98232.31;;;10.29
65316;BMP280;51920;53.952;10.292;2023-03-14T01:15:33;98230.47;;;10.26
65316;BMP280;51920;53.952;10.292;2023-03-14T01:18:01;98234.03;;;10.23
65316;BMP280;51920;53.952;10.292;2023-03-14T01:20:27;98243.22;;;10.25
65316;BMP280;51920;53.952;10.292;2023-03-14T01:22:54;98256.44;;;10.23
65316;BMP280;51920;53.952;10.292;2023-03-14T01:25:21;98266.47;;;10.35
65316;BMP280;51920;53.952;10.292;2023-03-14T01:27:48;98253.94;;;10.29
65316;BMP280;51920;53.952;10.292;2023-03-14T01:30:15;98260.19;;;10.39
65316;BMP280;51920;53.952;10.292;2023-03-14T01:32:43;98261.78;;;10.49
65316;BMP280;51920;53.952;10.292;2023-03-14T01:35:09;98268.81;;;10.46
65316;BMP280;51920;53.952;10.292;2023-03-14T01:37:37;98260.78;;;10.55
65316;BMP280;51920;53.952;10.292;2023-03-14T01:40:06;98258.88;;;10.43
65316;BMP280;51920;53.952;10.292;2023-03-14T01:42:33;98248.41;;;10.45
65316;BMP280;51920;53.952;10.292;2023-03-14T01:45:01;98247.13;;;10.59
65316;BMP280;51920;53.952;10.292;2023-03-14T01:47:28;98252.91;;;10.61
65316;BMP280;51920;53.952;10.292;2023-03-14T01:50:04;98243.69;;;10.59
65316;BMP280;51920;53.952;10.292;2023-03-14T01:52:39;98223.81;;;10.52
65316;BMP280;51920;53.952;10.292;2023-03-14T01:55:14;98220.66;;;10.54
65316;BMP280;51920;53.952;10.292;2023-03-14T01:57:52;98212.97;;;10.52
65316;BMP280;51920;53.952;10.292;2023-03-14T02:00:22;98202.50;;;10.42
65316;BMP280;51920;53.952;10.292;2023-03-14T02:02:52;98203.16;;;10.46
65316;BMP280;51920;53.952;10.292;2023-03-14T02:05:27;98193.72;;;10.50
65316;BMP280;51920;53.952;10.292;2023-03-14T02:08:01;98181.88;;;10.57
65316;BMP280;51920;53.952;10.292;2023-03-14T02:10:42;98171.97;;;10.54
65316;BMP280;51920;53.952;10.292;2023-03-14T02:13:11;98180.25;;;10.60
65316;BMP280;51920;53.952;10.292;2023-03-14T02:15:52;98187.03;;;10.64
65316;BMP280;51920;53.952;10.292;2023-03-14T02:18:38;98190.81;;;10.67
65316;BMP280;51920;53.952;10.292;2023-03-14T02:21:41;98187.19;;;10.83
65316;BMP280;51920;53.952;10.292;2023-03-14T02:24:27;98195.63;;;10.85
65316;BMP280;51920;53.952;10.292;2023-03-14T02:27:08;98188.84;;;10.89
65316;BMP280;51920;53.952;10.292;2023-03-14T02:29:43;98166.59;;;10.85
65316;BMP280;51920;53.952;10.292;2023-03-14T02:32:12;98153.16;;;10.82
65316;BMP280;51920;53.952;10.292;2023-03-14T02:34:41;98142.13;;;10.67
65316;BMP280;51920;53.952;10.292;2023-03-14T02:37:10;98145.44;;;10.71
65316;BMP280;51920;53.952;10.292;2023-03-14T02:39:40;98139.03;;;10.77
65316;BMP280;51920;53.952;10.292;2023-03-14T02:42:09;98149.94;;;10.96
65316;BMP280;51920;53.952;10.292;2023-03-14T02:44:35;98139.56;;;10.94
65316;BMP280;51920;53.952;10.292;2023-03-14T02:47:04;98149.75;;;10.90
65316;BMP280;51920;53.952;10.292;2023-03-14T02:49:31;98137.53;;;10.86
65316;BMP280;51920;53.952;10.292;2023-03-14T02:51:59;98135.63;;;10.86
65316;BMP280;51920;53.952;10.292;2023-03-14T02:54:26;98141.47;;;10.85
65316;BMP280;51920;53.952;10.292;2023-03-14T02:56:52;98142.56;;;10.96
65316;BMP280;51920;53.952;10.292;2023-03-14T02:59:19;98151.44;;;10.97
65316;BMP280;51920;53.952;10.292;2023-03-14T03:01:54;98154.78;;;11.01
65316;BMP280;51920;53.952;10.292;2023-03-14T03:04:21;98136.41;;;10.96
65316;BMP280;51920;53.952;10.292;2023-03-14T03:06:47;98142.66;;;11.15
65316;BMP280;51920;53.952;10.292;2023-03-14T03:09:15;98151.41;;;11.19
65316;BMP280;51920;53.952;10.292;2023-03-14T03:11:41;98155.47;;;11.14
65316;BMP280;51920;53.952;10.292;2023-03-14T03:14:13;98144.19;;;11.16
65316;BMP280;51920;53.952;10.292;2023-03-14T03:16:40;98159.66;;;11.15
65316;BMP280;51920;53.952;10.292;2023-03-14T03:19:07;98163.34;;;11.31
65316;BMP280;51920;53.952;10.292;2023-03-14T03:21:33;98153.53;;;11.24
65316;BMP280;51920;53.952;10.292;2023-03-14T03:24:01;98150.56;;;11.31
65316;BMP280;51920;53.952;10.292;2023-03-14T03:26:28;98142.53;;;11.18
65316;BMP280;51920;53.952;10.292;2023-03-14T03:28:54;98138.16;;;11.21
65316;BMP280;51920;53.952;10.292;2023-03-14T03:31:22;98142.25;;;11.26
65316;BMP280;51920;53.952;10.292;2023-03-14T03:33:49;98144.19;;;11.16
65316;BMP280;51920;53.952;10.292;2023-03-14T03:36:20;98132.97;;;11.05
65316;BMP280;51920;53.952;10.292;2023-03-14T03:38:48;98132.22;;;11.04
65316;BMP280;51920;53.952;10.292;2023-03-14T03:41:15;98131.22;;;11.11
65316;BMP280;51920;53.952;10.292;2023-03-14T03:43:42;98117.34;;;11.09
65316;BMP280;51920;53.952;10.292;2023-03-14T03:46:10;98101.66;;;10.94
65316;BMP280;51920;53.952;10.292;2023-03-14T03:48:37;98110.13;;;11.06
65316;BMP280;51920;53.952;10.292;2023-03-14T03:51:05;98098.06;;;11.07
65316;BMP280;51920;53.952;10.292;2023-03-14T03:53:33;98099.72;;;11.04
65316;BMP280;51920;53.952;10.292;2023-03-14T03:56:04;98108.78;;;11.10
65316;BMP280;51920;53.952;10.292;2023-03-14T03:58:32;98102.47;;;11.13
65316;BMP280;51920;53.952;10.292;2023-03-14T04:00:59;98094.47;;;11.01
65316;BMP280;51920;53.952;10.292;2023-03-14T04:03:25;98090.38;;;11.05
65316;BMP280;51920;53.952;10.292;2023-03-14T04:06:02;98086.97;;;11.14
65316;BMP280;51920;53.952;10.292;2023-03-14T04:08:31;98076.13;;;11.14
65316;BMP280;51920;53.952;10.292;2023-03-14T04:10:59;98076.78;;;11.18
65316;BMP280;51920;53.952;10.292;2023-03-14T04:13:44;98064.25;;;11.20
65316;BMP280;51920;53.952;10.292;2023-03-14T04:16:17;98073.94;;;11.31
65316;BMP280;51920;53.952;10.292;2023-03-14T04:18:44;98064.25;;;11.20
65316;BMP280;51920;53.952;10.292;2023-03-14T04:21:11;98076.81;;;11.27
65316;BMP280;51920;53.952;10.292;2023-03-14T04:23:52;98067.78;;;11.30
65316;BMP280;51920;53.952;10.292;2023-03-14T04:26:19;98071.06;;;11.25
65316;BMP280;51920;53.952;10.292;2023-03-14T04:28:46;98064.28;;;11.30
65316;BMP280;51920;53.952;10.292;2023-03-14T04:31:21;98060.41;;;11.31
65316;BMP280;51920;53.952;10.292;2023-03-14T04:33:49;98060.25;;;11.25
65316;BMP280;51920;53.952;10.292;2023-03-14T04:36:21;98059.31;;;11.19
65316;BMP280;51920;53.952;10.292;2023-03-14T04:38:48;98055.53;;;11.07
65316;BMP280;51920;53.952;10.292;2023-03-14T04:41:18;98052.19;;;11.12
65316;BMP280;51920;53.952;10.292;2023-03-14T04:43:45;98055.97;;;11.06
65316;BMP280;51920;53.952;10.292;2023-03-14T04:46:12;98056.19;;;10.89
65316;BMP280;51920;53.952;10.292;2023-03-14T04:48:40;98076.84;;;10.96
65316;BMP280;51920;53.952;10.292;2023-03-14T04:51:07;98066.41;;;10.85
65316;BMP280;51920;53.952;10.292;2023-03-14T04:53:35;98075.25;;;10.76
65316;BMP280;51920;53.952;10.292;2023-03-14T04:56:07;98090.25;;;10.46
65316;BMP280;51920;53.952;10.292;2023-03-14T04:58:38;98094.78;;;10.27
65316;BMP280;51920;53.952;10.292;2023-03-14T05:01:06;98105.78;;;10.11
65316;BMP280;51920;53.952;10.292;2023-03-14T05:03:53;98092.88;;;9.93
65316;BMP280;51920;53.952;10.292;2023-03-14T05:06:38;98091.63;;;9.59
65316;BMP280;51920;53.952;10.292;2023-03-14T05:09:28;98086.94;;;9.38
65316;BMP280;51920;53.952;10.292;2023-03-14T05:12:15;98083.34;;;9.28
65316;BMP280;51920;53.952;10.292;2023-03-14T05:15:01;98075.25;;;9.15
65316;BMP280;51920;53.952;10.292;2023-03-14T05:17:39;98074.31;;;9.09
65316;BMP280;51920;53.952;10.292;2023-03-14T05:20:11;98075.91;;;9.06
65316;BMP280;51920;53.952;10.292;2023-03-14T05:23:01;98079.47;;;9.03
65316;BMP280;51920;53.952;10.292;2023-03-14T05:25:56;98066.94;;;8.97
65316;BMP280;51920;53.952;10.292;2023-03-14T05:28:38;98061.88;;;8.99
65316;BMP280;51920;53.952;10.292;2023-03-14T05:31:11;98052.25;;;8.85
65316;BMP280;51920;53.952;10.292;2023-03-14T05:33:45;98058.28;;;8.89
65316;BMP280;51920;53.952;10.292;2023-03-14T05:36:31;98055.03;;;8.94
65316;BMP280;51920;53.952;10.292;2023-03-14T05:39:18;98049.13;;;8.86
65316;BMP280;51920;53.952;10.292;2023-03-14T05:42:16;98054.28;;;8.94
65316;BMP280;51920;53.952;10.292;2023-03-14T05:45:02;98043.41;;;8.97
65316;BMP280;51920;53.952;10.292;2023-03-14T05:47:55;98054.41;;;8.90
65316;BMP280;51920;53.952;10.292;2023-03-14T05:50:33;98048.28;;;8.89
65316;BMP280;51920;53.952;10.292;2023-03-14T05:53:14;98045.44;;;8.93
65316;BMP280;51920;53.952;10.292;2023-03-14T05:55:53;98040.28;;;8.99
65316;BMP280;51920;53.952;10.292;2023-03-14T05:58:33;98033.25;;;9.01
65316;BMP280;51920;53.952;10.292;2023-03-14T06:01:26;98026.78;;;8.99
65316;BMP280;51920;53.952;10.292;2023-03-14T06:04:06;98022.91;;;9.00
65316;BMP280;51920;53.952;10.292;2023-03-14T06:06:33;98020.84;;;9.04
65316;BMP280;51920;53.952;10.292;2023-03-14T06:09:01;98009.41;;;9.00
65316;BMP280;51920;53.952;10.292;2023-03-14T06:11:30;98017.50;;;9.00
65316;BMP280;51920;53.952;10.292;2023-03-14T06:13:57;98013.16;;;9.02
65316;BMP280;51920;53.952;10.292;2023-03-14T06:16:24;98012.13;;;9.00
65316;BMP280;51920;53.952;10.292;2023-03-14T06:18:52;98021.06;;;8.97
65316;BMP280;51920;53.952;10.292;2023-03-14T06:21:21;98016.94;;;9.05
65316;BMP280;51920;53.952;10.292;2023-03-14T06:23:48;98010.78;;;9.04
65316;BMP280;51920;53.952;10.292;2023-03-14T06:26:16;98010.25;;;9.09
65316;BMP280;51920;53.952;10.292;2023-03-14T06:28:43;98019.66;;;9.18
65316;BMP280;51920;53.952;10.292;2023-03-14T06:31:09;98026.13;;;9.20
65316;BMP280;51920;53.952;10.292;2023-03-14T06:33:45;98028.03;;;9.32
65316;BMP280;51920;53.952;10.292;2023-03-14T06:36:12;98038.09;;;9.32
65316;BMP280;51920;53.952;10.292;2023-03-14T06:38:41;98040.25;;;9.37
65316;BMP280;51920;53.952;10.292;2023-03-14T06:41:08;98032.34;;;9.43
65316;BMP280;51920;53.952;10.292;2023-03-14T06:43:41;98044.31;;;9.42
65316;BMP280;51920;53.952;10.292;2023-03-14T06:46:08;98041.72;;;9.51
65316;BMP280;51920;53.952;10.292;2023-03-14T06:48:38;98036.75;;;9.62
65316;BMP280;51920;53.952;10.292;2023-03-14T06:51:05;98036.81;;;9.71
65316;BMP280;51920;53.952;10.292;2023-03-14T06:53:33;98044.00;;;9.65
65316;BMP280;51920;53.952;10.292;2023-03-14T06:56:01;98046.25;;;9.67
65316;BMP280;51920;53.952;10.292;2023-03-14T06:58:30;98057.38;;;9.69
65316;BMP280;51920;53.952;10.292;2023-03-14T07:00:57;98056.06;;;9.73
65316;BMP280;51920;53.952;10.292;2023-03-14T07:03:30;98057.41;;;9.91
65316;BMP280;51920;53.952;10.292;2023-03-14T07:05:58;98064.28;;;10.27
65316;BMP280;51920;53.952;10.292;2023-03-14T07:08:26;98058.03;;;10.39
65316;BMP280;51920;53.952;10.292;2023-03-14T07:10:53;98052.88;;;10.32
65316;BMP280;51920;53.952;10.292;2023-03-14T07:13:23;98058.63;;;10.34
65316;BMP280;51920;53.952;10.292;2023-03-14T07:15:56;98062.00;;;10.47
65316;BMP280;51920;53.952;10.292;2023-03-14T07:18:23;98067.03;;;10.58
65316;BMP280;51920;53.952;10.292;2023-03-14T07:20:49;98053.19;;;10.56
65316;BMP280;51920;53.952;10.292;2023-03-14T07:23:18;98056.78;;;10.53
65316;BMP280;51920;53.952;10.292;2023-03-14T07:25:47;98071.56;;;10.39
65316;BMP280;51920;53.952;10.292;2023-03-14T07:28:17;98073.13;;;10.49
65316;BMP280;51920;53.952;10.292;2023-03-14T07:30:46;98062.53;;;10.33
65316;BMP280;51920;53.952;10.292;2023-03-14T07:33:19;98074.31;;;10.48
65316;BMP280;51920;53.952;10.292;2023-03-14T07:35:47;98081.56;;;10.51
65316;BMP280;51920;53.952;10.292;2023-03-14T07:38:15;98079.41;;;10.46
65316;BMP280;51920;53.952;10.292;2023-03-14T07:41:05;98088.50;;;10.52
65316;BMP280;51920;53.952;10.292;2023-03-14T07:43:35;98091.00;;;10.47
65316;BMP280;51920;53.952;10.292;2023-03-14T07:46:02;98095.63;;;10.37
65316;BMP280;51920;53.952;10.292;2023-03-14T07:48:29;98097.75;;;10.20
65316;BMP280;51920;53.952;10.292;2023-03-14T07:50:56;98091.59;;;10.20
65316;BMP280;51920;53.952;10.292;2023-03-14T07:53:23;98094.16;;;10.01
65316;BMP280;51920;53.952;10.292;2023-03-14T07:55:54;98102.50;;;9.94
65316;BMP280;51920;53.952;10.292;2023-03-14T07:58:21;98100.00;;;9.87
65316;BMP280;51920;53.952;10.292;2023-03-14T08:00:49;98102.44;;;9.85
65316;BMP280;51920;53.952;10.292;2023-03-14T08:03:17;98091.81;;;9.78
65316;BMP280;51920;53.952;10.292;2023-03-14T08:05:45;98086.63;;;9.70
65316;BMP280;51920;53.952;10.292;2023-03-14T08:08:13;98088.16;;;9.71
65316;BMP280;51920;53.952;10.292;2023-03-14T08:10:39;98094.41;;;9.68
65316;BMP280;51920;53.952;10.292;2023-03-14T08:13:06;98095.19;;;9.82
65316;BMP280;51920;53.952;10.292;2023-03-14T08:15:33;98092.16;;;9.80
65316;BMP280;51920;53.952;10.292;2023-03-14T08:17:59;98088.66;;;9.79
65316;BMP280;51920;53.952;10.292;2023-03-14T08:20:28;98084.78;;;9.80
65316;BMP280;51920;53.952;10.292;2023-03-14T08:22:59;98092.47;;;9.82
65316;BMP280;51920;53.952;10.292;2023-03-14T08:25:27;98092.16;;;9.80
65316;BMP280;51920;53.952;10.292;2023-03-14T08:27:54;98062.06;;;9.78
65316;BMP280;51920;53.952;10.292;2023-03-14T08:30:22;98082.91;;;9.90
65316;BMP280;51920;53.952;10.292;2023-03-14T08:32:49;98093.41;;;9.88
65316;BMP280;51920;53.952;10.292;2023-03-14T08:35:15;98092.72;;;9.97
65316;BMP280;51920;53.952;10.292;2023-03-14T08:37:42;98093.53;;;9.84
65316;BMP280;51920;53.952;10.292;2023-03-14T08:40:10;98093.13;;;9.86
65316;BMP280;51920;53.952;10.292;2023-03-14T08:42:39;98087.81;;;9.82
65316;BMP280;51920;53.952;10.292;2023-03-14T08:45:07;98095.19;;;9.82
65316;BMP280;51920;53.952;10.292;2023-03-14T08:47:34;98090.84;;;9.84
65316;BMP280;51920;53.952;10.292;2023-03-14T08:50:03;98099.38;;;9.83
65316;BMP280;51920;53.952;10.292;2023-03-14T08:52:31;98104.47;;;9.81
65316;BMP280;51920;53.952;10.292;2023-03-14T08:54:58;98108.69;;;9.82
65316;BMP280;51920;53.952;10.292;2023-03-14T08:57:26;98102.63;;;9.78
65316;BMP280;51920;53.952;10.292;2023-03-14T08:59:56;98102.44;;;9.85
65316;BMP280;51920;53.952;10.292;2023-03-14T09:02:25;98114.50;;;9.93
65316;BMP280;51920;53.952;10.292;2023-03-14T09:04:52;98108.94;;;9.97
65316;BMP280;51920;53.952;10.292;2023-03-14T09:07:19;98115.00;;;10.01
65316;BMP280;51920;53.952;10.292;2023-03-14T09:09:46;98110.06;;;9.99
65316;BMP280;51920;53.952;10.292;2023-03-14T09:12:13;98114.75;;;9.86
65316;BMP280;51920;53.952;10.292;2023-03-14T09:14:39;98117.50;;;9.95
65316;BMP280;51920;53.952;10.292;2023-03-14T09:17:06;98105.41;;;9.87
65316;BMP280;51920;53.952;10.292;2023-03-14T09:19:33;98109.63;;;9.88
65316;BMP280;51920;53.952;10.292;2023-03-14T09:22:02;98110.81;;;9.87
65316;BMP280;51920;53.952;10.292;2023-03-14T09:24:29;98116.13;;;9.90
65316;BMP280;51920;53.952;10.292;2023-03-14T09:26:56;98100.09;;;9.96
65316;BMP280;51920;53.952;10.292;2023-03-14T09:29:23;98110.63;;;10.16
65316;BMP280;51920;53.952;10.292;2023-03-14T09:31:51;98112.66;;;10.25
65316;BMP280;51920;53.952;10.292;2023-03-14T09:34:18;98119.59;;;10.26
65316;BMP280;51920;53.952;10.292;2023-03-14T09:36:45;98123.78;;;10.27
65316;BMP280;51920;53.952;10.292;2023-03-14T09:39:12;98127.94;;;10.41
65316;BMP280;51920;53.952;10.292;2023-03-14T09:41:44;98127.50;;;10.42
65316;BMP280;51920;53.952;10.292;2023-03-14T09:44:30;98128.31;;;10.30
65316;BMP280;51920;53.952;10.292;2023-03-14T09:47:01;98132.69;;;10.14
65316;BMP280;51920;53.952;10.292;2023-03-14T09:49:32;98184.31;;;10.07
65316;BMP280;51920;53.952;10.292;2023-03-14T09:52:11;98205.78;;;9.38
65316;BMP280;51920;53.952;10.292;2023-03-14T09:54:44;98231.97;;;8.20
65316;BMP280;51920;53.952;10.292;2023-03-14T09:57:17;98255.75;;;7.89
65316;BMP280;51920;53.952;10.292;2023-03-14T09:59:45;98254.56;;;7.74
65316;BMP280;51920;53.952;10.292;2023-03-14T10:02:19;98263.44;;;7.34
65316;BMP280;51920;53.952;10.292;2023-03-14T10:04:49;98258.59;;;7.25
65316;BMP280;51920;53.952;10.292;2023-03-14T10:07:25;98267.03;;;7.27
65316;BMP280;51920;53.952;10.292;2023-03-14T10:09:53;98287.91;;;7.00
65316;BMP280;51920;53.952;10.292;2023-03-14T10:12:30;98298.47;;;6.91
65316;BMP280;51920;53.952;10.292;2023-03-14T10:15:03;98306.25;;;6.81
65316;BMP280;51920;53.952;10.292;2023-03-14T10:17:38;98324.06;;;6.75
65316;BMP280;51920;53.952;10.292;2023-03-14T10:20:06;98313.38;;;6.44
65316;BMP280;51920;53.952;10.292;2023-03-14T10:22:33;98329.00;;;5.95
65316;BMP280;51920;53.952;10.292;2023-03-14T10:25:03;98347.91;;;5.50
65316;BMP280;51920;53.952;10.292;2023-03-14T10:27:35;98385.97;;;5.38
65316;BMP280;51920;53.952;10.292;2023-03-14T10:30:06;98398.16;;;5.01
65316;BMP280;51920;53.952;10.292;2023-03-14T10:32:35;98419.03;;;4.75
65316;BMP280;51920;53.952;10.292;2023-03-14T10:37:56;98438.22;;;4.63
65316;BMP280;51920;53.952;10.292;2023-03-14T10:40:38;98446.00;;;4.32
65316;BMP280;51920;53.952;10.292;2023-03-14T10:43:11;98459.81;;;4.23
65316;BMP280;51920;53.952;10.292;2023-03-14T10:45:43;98463.97;;;4.46
65316;BMP280;51920;53.952;10.292;2023-03-14T10:53:42;98499.53;;;4.57
65316;BMP280;51920;53.952;10.292;2023-03-14T10:56:14;98504.16;;;4.50
65316;BMP280;51920;53.952;10.292;2023-03-14T10:58:46;98504.03;;;4.78
65316;BMP280;51920;53.952;10.292;2023-03-14T11:04:09;98537.00;;;4.68
65316;BMP280;51920;53.952;10.292;2023-03-14T11:09:30;98542.41;;;4.57
65316;BMP280;51920;53.952;10.292;2023-03-14T11:12:10;98543.19;;;4.51
65316;BMP280;51920;53.952;10.292;2023-03-14T11:14:46;98559.53;;;4.96
65316;BMP280;51920;53.952;10.292;2023-03-14T11:17:28;98570.25;;;4.96
65316;BMP280;51920;53.952;10.292;2023-03-14T11:20:09;98578.22;;;5.10
65316;BMP280;51920;53.952;10.292;2023-03-14T11:25:54;98582.88;;;4.92
65316;BMP280;51920;53.952;10.292;2023-03-14T11:28:41;98582.88;;;4.95
65316;BMP280;51920;53.952;10.292;2023-03-14T11:31:20;98602.78;;;5.01
65316;BMP280;51920;53.952;10.292;2023-03-14T11:36:33;98611.94;;;5.15
65316;BMP280;51920;53.952;10.292;2023-03-14T11:39:08;98604.28;;;5.13
65316;BMP280;51920;53.952;10.292;2023-03-14T11:41:43;98639.13;;;5.17
65316;BMP280;51920;53.952;10.292;2023-03-14T11:44:18;98653.41;;;4.96
65316;BMP280;51920;53.952;10.292;2023-03-14T11:46:56;98660.53;;;5.35
65316;BMP280;51920;53.952;10.292;2023-03-14T11:49:29;98654.28;;;5.59
65316;BMP280;51920;53.952;10.292;2023-03-14T11:55:28;98668.50;;;5.49
65316;BMP280;51920;53.952;10.292;2023-03-14T11:58:27;98679.22;;;5.56
65316;BMP280;51920;53.952;10.292;2023-03-14T12:00:57;98691.09;;;5.62
65316;BMP280;51920;53.952;10.292;2023-03-14T12:03:49;98696.09;;;5.53
65316;BMP280;51920;53.952;10.292;2023-03-14T12:09:05;98708.38;;;5.61
65316;BMP280;51920;53.952;10.292;2023-03-14T12:11:40;98706.91;;;5.39
65316;BMP280;51920;53.952;10.292;2023-03-14T12:14:30;98708.84;;;5.38
65316;BMP280;51920;53.952;10.292;2023-03-14T12:17:07;98723.69;;;5.57
65316;BMP280;51920;53.952;10.292;2023-03-14T12:19:44;98723.66;;;5.64
65316;BMP280;51920;53.952;10.292;2023-03-14T12:22:42;98713.97;;;5.85
65316;BMP280;51920;53.952;10.292;2023-03-14T12:27:48;98727.38;;;5.92
65316;BMP280;51920;53.952;10.292;2023-03-14T12:30:24;98739.59;;;6.04
65316;BMP280;51920;53.952;10.292;2023-03-14T12:35:46;98726.56;;;6.02
65316;BMP280;51920;53.952;10.292;2023-03-14T12:38:41;98723.13;;;5.98
65316;BMP280;51920;53.952;10.292;2023-03-14T12:41:26;98735.47;;;5.85
65316;BMP280;51920;53.952;10.292;2023-03-14T12:43:54;98742.75;;;5.92
65316;BMP280;51920;53.952;10.292;2023-03-14T12:46:26;98737.41;;;5.81
65316;BMP280;51920;53.952;10.292;2023-03-14T12:51:40;98769.63;;;5.88
65316;BMP280;51920;53.952;10.292;2023-03-14T12:57:59;98788.72;;;6.08
65316;BMP280;51920;53.952;10.292;2023-03-14T13:00:02;98779.53;;;6.05
65316;BMP280;51920;53.952;10.292;2023-03-14T13:02:43;98798.69;;;6.08
65316;BMP280;51920;53.952;10.292;2023-03-14T13:05:13;98808.69;;;6.00
65316;BMP280;51920;53.952;10.292;2023-03-14T13:10:25;98816.34;;;6.05
65316;BMP280;51920;53.952;10.292;2023-03-14T13:15:41;98826.03;;;5.88
65316;BMP280;51920;53.952;10.292;2023-03-14T13:18:30;98837.09;;;5.97
65316;BMP280;51920;53.952;10.292;2023-03-14T13:21:24;98827.47;;;6.07
65316;BMP280;51920;53.952;10.292;2023-03-14T13:24:05;98853.53;;;6.21
65316;BMP280;51920;53.952;10.292;2023-03-14T13:26:40;98858.03;;;6.38
65316;BMP280;51920;53.952;10.292;2023-03-14T13:29:26;98874.59;;;6.26
65316;BMP280;51920;53.952;10.292;2023-03-14T13:31:55;98867.75;;;6.21
65316;BMP280;51920;53.952;10.292;2023-03-14T13:34:29;98879.28;;;6.15
65316;BMP280;51920;53.952;10.292;2023-03-14T13:36:56;98894.22;;;6.23
65316;BMP280;51920;53.952;10.292;2023-03-14T13:39:25;98909.97;;;6.10
65316;BMP280;51920;53.952;10.292;2023-03-14T13:41:52;98905.38;;;6.11
65316;BMP280;51920;53.952;10.292;2023-03-14T13:44:38;98930.66;;;6.31
65316;BMP280;51920;53.952;10.292;2023-03-14T13:47:12;98919.59;;;6.15
65316;BMP280;51920;53.952;10.292;2023-03-14T13:49:41;98922.22;;;6.25
65316;BMP280;51920;53.952;10.292;2023-03-14T13:52:30;98937.66;;;6.14
65316;BMP280;51920;53.952;10.292;2023-03-14T13:54:59;98946.13;;;6.05
65316;BMP280;51920;53.952;10.292;2023-03-14T13:57:26;98950.66;;;6.16
65316;BMP280;51920;53.952;10.292;2023-03-14T14:00:05;98956.03;;;6.16
65316;BMP280;51920;53.952;10.292;2023-03-14T14:02:34;98949.97;;;5.97
65316;BMP280;51920;53.952;10.292;2023-03-14T14:05:03;98964.91;;;6.16
65316;BMP280;51920;53.952;10.292;2023-03-14T14:07:30;98972.56;;;6.11
65316;BMP280;51920;53.952;10.292;2023-03-14T14:09:58;98975.22;;;6.29
65316;BMP280;51920;53.952;10.292;2023-03-14T14:12:31;98983.28;;;6.29
65316;BMP280;51920;53.952;10.292;2023-03-14T14:15:02;98990.13;;;6.47
65316;BMP280;51920;53.952;10.292;2023-03-14T14:17:31;98992.44;;;6.49
65316;BMP280;51920;53.952;10.292;2023-03-14T14:20:00;98992.38;;;6.60
65316;BMP280;51920;53.952;10.292;2023-03-14T14:22:27;98989.72;;;6.56
65316;BMP280;51920;53.952;10.292;2023-03-14T14:24:54;99006.66;;;6.50
65316;BMP280;51920;53.952;10.292;2023-03-14T14:27:30;99021.97;;;6.53
65316;BMP280;51920;53.952;10.292;2023-03-14T14:32:39;99022.03;;;6.45
65316;BMP280;51920;53.952;10.292;2023-03-14T14:35:10;99024.75;;;6.24
65316;BMP280;51920;53.952;10.292;2023-03-14T14:37:44;99038.97;;;6.28
65316;BMP280;51920;53.952;10.292;2023-03-14T14:40:18;99055.88;;;6.25
65316;BMP280;51920;53.952;10.292;2023-03-14T14:42:46;99054.34;;;6.20
65316;BMP280;51920;53.952;10.292;2023-03-14T14:45:17;99033.22;;;6.12
65316;BMP280;51920;53.952;10.292;2023-03-14T14:47:52;99056.69;;;6.00
65316;BMP280;51920;53.952;10.292;2023-03-14T14:53:03;99060.50;;;6.06
65316;BMP280;51920;53.952;10.292;2023-03-14T14:55:38;99072.03;;;6.18
65316;BMP280;51920;53.952;10.292;2023-03-14T14:58:24;99080.47;;;6.13
65316;BMP280;51920;53.952;10.292;2023-03-14T15:00:57;99071.66;;;6.09
65316;BMP280;51920;53.952;10.292;2023-03-14T15:03:29;99105.41;;;6.13
65316;BMP280;51920;53.952;10.292;2023-03-14T15:05:58;99109.66;;;6.14
65316;BMP280;51920;53.952;10.292;2023-03-14T15:08:26;99117.31;;;6.05
65316;BMP280;51920;53.952;10.292;2023-03-14T15:10:53;99104.25;;;6.00
65316;BMP280;51920;53.952;10.292;2023-03-14T15:13:20;99102.00;;;6.09
65316;BMP280;51920;53.952;10.292;2023-03-14T15:15:49;99131.91;;;6.11
65316;BMP280;51920;53.952;10.292;2023-03-14T15:18:17;99130.38;;;6.14